Ile-A-La-Crosse, Canada
Current Conditions -  °F | °C
As of 8:00 PM on Saturday 25 Oct 2014 (Local Time) from CYVT Reporting Station
Broken Clouds Broken Clouds  
Wind Chill: 33°   Ceiling: 10000
Heat Index: 37°   Visibility: 15mi
Dew Point: 28°   Wind: 6mph
Humidity: 70%   Direction: 130°SE
Pressure: 29.86"   Gusts: NA
Location:  55.43°N, 107.9°W
Report Text: CYVT 260200Z 13005KT 15SM BKN100 03/M02 A2986 RMK AC7 SLP134
Loading
Personal Weather Stations






























Interactive Weather Map
Tropical Storm Tracking
New forecast layout! Learn more

10-Day Weather Forecast

Advertisements
Track Severe Weather on mobile